Time;durP1;ratioP1;P1;durP2;ratioP2;P2;SDS_P1;SDS_P2;PMS_P1;PMS_P2;Temp;Humidity;BMP_temperature;BMP_pressure;BME280_temperature;BME280_humidity;BME280_pressure;Samples;Min_cycle;Max_cycle;Signal;HPM_P1;HPM_P2
2022/02/02 00:00:32;;;;;;;;;;;;;;;;;;2126563;27;19928;-77
2022/02/02 00:02:48;;;;;;;;;;;;;;;;;;2126774;27;19930;-75
2022/02/02 00:03:53;;;;;;;;;;;;;;;;;;2126897;27;19930;-76
2022/02/02 00:05:06;;;;;;;;;;;;;;;;;;2126746;27;20646;-76
2022/02/02 00:06:15;;;;;;;;;;;;;;;;;;2126663;27;20721;-76
2022/02/02 00:08:37;;;;;;;;;;;;;;;;;;2127286;27;19927;-75
2022/02/02 00:09:50;;;;;;;;;;;;;;;;;;2127128;27;20054;-75
2022/02/02 00:13:10;;;;;;;;;;;;;;;;;;2127166;27;20726;-74
2022/02/02 00:15:47;;;;;;;;;;;;;;;;;;2126553;27;19971;-75
2022/02/02 00:16:56;;;;;;;;;;;;;;;;;;2126584;27;19927;-77
2022/02/02 00:20:49;;;;;;;;;;;;;;;;;;2123787;27;19924;-75
2022/02/02 00:21:57;;;;;;;;;;;;;;;;;;2118743;27;20062;-75
2022/02/02 00:23:03;;;;;;;;;;;;;;;;;;2118677;27;19929;-75
2022/02/02 00:24:15;;;;;;;;;;;;;;;;;;2118422;27;19925;-75
2022/02/02 00:25:22;;;;;;;;;;;;;;;;;;2121201;27;19927;-75
2022/02/02 00:26:36;;;;;;;;;;;;;;;;;;2126921;27;20654;-76
2022/02/02 00:27:39;;;;;;;;;;;;;;;;;;2126331;27;20025;-75
2022/02/02 00:28:46;;;;;;;;;;;;;;;;;;2126652;27;19931;-75
2022/02/02 00:29:54;;;;;;;;;;;;;;;;;;2126539;27;19934;-75
2022/02/02 00:31:01;;;;;;;;;;;;;;;;;;2126344;27;20703;-75
2022/02/02 00:32:20;;;;;;;;;;;;;;;;;;2127155;27;19927;-75
2022/02/02 00:33:27;;;;;;;;;;;;;;;;;;2126636;27;19932;-75
2022/02/02 00:34:31;;;;;;;;;;;;;;;;;;2126360;27;20010;-76
2022/02/02 00:35:38;;;;;;;;;;;;;;;;;;2126785;27;19924;-76
2022/02/02 00:36:47;;;;;;;;;;;;;;;;;;2126356;27;19939;-76
2022/02/02 00:37:49;;;;;;;;;;;;;;;;;;2126543;27;20131;-75
2022/02/02 00:38:52;;;;;;;;;;;;;;;;;;2126485;27;19931;-75
2022/02/02 00:39:58;;;;;;;;;;;;;;;;;;2126500;27;20019;-76
2022/02/02 00:41:01;;;;;;;;;;;;;;;;;;2126232;27;20604;-75
2022/02/02 00:42:03;;;;;;;;;;;;;;;;;;2126263;27;20603;-75
2022/02/02 00:43:06;;;;;;;;;;;;;;;;;;2127317;27;20722;-76
2022/02/02 00:44:08;;;;;;;;;;;;;;;;;;2126687;27;19924;-76
2022/02/02 00:45:10;;;;;;;;;;;;;;;;;;2126530;27;20675;-76
2022/02/02 00:46:13;;;;;;;;;;;;;;;;;;2126455;27;20053;-76
2022/02/02 00:47:21;;;;;;;;;;;;;;;;;;2127126;27;20141;-76
2022/02/02 00:48:26;;;;;;;;;;;;;;;;;;2126451;27;19928;-76
2022/02/02 00:49:29;;;;;;;;;;;;;;;;;;2126277;27;20765;-76
2022/02/02 00:50:31;;;;;;;;;;;;;;;;;;2126511;27;20033;-76
2022/02/02 00:51:46;;;;;;;;;;;;;;;;;;2126138;27;19927;-76
2022/02/02 00:52:51;;;;;;;;;;;;;;;;;;2126376;27;20020;-75
2022/02/02 00:53:53;;;;;;;;;;;;;;;;;;2126672;27;20054;-75
2022/02/02 00:54:55;;;;;;;;;;;;;;;;;;2126037;27;19935;-75
2022/02/02 00:55:57;;;;;;;;;;;;;;;;;;2126110;27;19928;-75
2022/02/02 00:57:01;;;;;;;;;;;;;;;;;;2126179;27;19928;-75
2022/02/02 00:58:03;;;;;;;;;;;;;;;;;;2125963;27;20827;-75
2022/02/02 00:59:05;;;;;;;;;;;;;;;;;;2126104;27;19924;-76
2022/02/02 01:00:07;;;;;;;;;;;;;;;;;;2126298;27;19927;-76
2022/02/02 01:01:08;;;;;;;;;;;;;;;;;;2126595;27;19971;-76
2022/02/02 01:02:12;;;;;;;;;;;;;;;;;;2126524;27;19928;-75
2022/02/02 01:03:15;;;;;;;;;;;;;;;;;;2126073;27;19927;-76
2022/02/02 01:04:17;;;;;;;;;;;;;;;;;;2126251;27;19933;-76
2022/02/02 01:05:18;;;;;;;;;;;;;;;;;;2125849;27;20133;-75
2022/02/02 01:06:22;;;;;;;;;;;;;;;;;;2126166;27;20750;-75
2022/02/02 01:09:13;;;;;;;;;;;;;;;;;;2126700;27;19934;-75
2022/02/02 01:11:30;;;;;;;;;;;;;;;;;;2126734;27;19935;-75
2022/02/02 01:19:14;;;;;;;;;;;;;;;;;;2127403;27;19953;-76
2022/02/02 01:21:30;;;;;;;;;;;;;;;;;;2127576;27;20006;-76
2022/02/02 01:28:16;;;;;;;;;;;;;;;;;;2100171;28;19928;-75
2022/02/02 01:29:18;;;;;;;;;;;;;;;;;;2092058;28;19940;-77
2022/02/02 01:30:22;;;;;;;;;;;;;;;;;;2125337;27;19930;-76
2022/02/02 01:31:24;;;;;;;;;;;;;;;;;;2126253;27;19943;-76
2022/02/02 01:32:26;;;;;;;;;;;;;;;;;;2126248;27;19973;-76
2022/02/02 01:33:31;;;;;;;;;;;;;;;;;;2126028;27;19923;-76
2022/02/02 01:34:35;;;;;;;;;;;;;;;;;;2126477;27;19924;-76
2022/02/02 01:35:37;;;;;;;;;;;;;;;;;;2126420;27;19954;-76
2022/02/02 01:36:42;;;;;;;;;;;;;;;;;;2126791;27;20046;-75
2022/02/02 01:37:47;;;;;;;;;;;;;;;;;;2126689;27;19928;-77
2022/02/02 01:38:51;;;;;;;;;;;;;;;;;;2126741;27;20699;-75
2022/02/02 01:40:00;;;;;;;;;;;;;;;;;;2126531;27;19928;-75
2022/02/02 01:41:09;;;;;;;;;;;;;;;;;;2126088;27;20647;-75
2022/02/02 01:42:15;;;;;;;;;;;;;;;;;;2126322;27;20741;-75
2022/02/02 01:43:22;;;;;;;;;;;;;;;;;;2126334;27;20793;-75
2022/02/02 01:44:40;;;;;;;;;;;;;;;;;;2126555;27;19924;-75
2022/02/02 01:45:54;;;;;;;;;;;;;;;;;;2125964;27;19996;-75
2022/02/02 01:46:59;;;;;;;;;;;;;;;;;;2126458;27;19924;-75
2022/02/02 01:50:50;;;;;;;;;;;;;;;;;;2126577;27;19928;-75
2022/02/02 01:54:32;;;;;;;;;;;;;;;;;;2126536;27;20703;-75
2022/02/02 01:55:40;;;;;;;;;;;;;;;;;;2126327;27;20651;-75
2022/02/02 01:56:46;;;;;;;;;;;;;;;;;;2126311;27;19927;-75
2022/02/02 01:58:03;;;;;;;;;;;;;;;;;;2125826;27;20804;-75
2022/02/02 01:59:33;;;;;;;;;;;;;;;;;;2125717;27;19927;-74
2022/02/02 02:00:36;;;;;;;;;;;;;;;;;;2125925;27;19928;-76
2022/02/02 02:01:37;;;;;;;;;;;;;;;;;;2126081;27;20050;-76
2022/02/02 02:02:39;;;;;;;;;;;;;;;;;;2125631;27;19931;-75
2022/02/02 02:03:41;;;;;;;;;;;;;;;;;;2126237;27;20761;-75
2022/02/02 02:04:43;;;;;;;;;;;;;;;;;;2126090;27;19927;-75
2022/02/02 02:05:45;;;;;;;;;;;;;;;;;;2126034;27;19931;-74
2022/02/02 02:06:47;;;;;;;;;;;;;;;;;;2125122;27;19934;-74
2022/02/02 02:07:49;;;;;;;;;;;;;;;;;;2125877;27;20741;-75
2022/02/02 02:08:50;;;;;;;;;;;;;;;;;;2126275;27;20193;-75
2022/02/02 02:09:54;;;;;;;;;;;;;;;;;;2126016;27;19924;-75
2022/02/02 02:10:58;;;;;;;;;;;;;;;;;;2125995;27;20084;-75
2022/02/02 02:12:01;;;;;;;;;;;;;;;;;;2125987;27;20735;-74
2022/02/02 02:13:10;;;;;;;;;;;;;;;;;;2125807;27;19971;-75
2022/02/02 02:15:35;;;;;;;;;;;;;;;;;;2126274;27;19931;-74
2022/02/02 02:16:37;;;;;;;;;;;;;;;;;;2126583;27;20603;-74
2022/02/02 02:17:39;;;;;;;;;;;;;;;;;;2125533;27;19928;-75
2022/02/02 02:18:40;;;;;;;;;;;;;;;;;;2125855;27;19924;-75
2022/02/02 02:19:49;;;;;;;;;;;;;;;;;;2126250;27;19930;-74
2022/02/02 02:20:52;;;;;;;;;;;;;;;;;;2125842;27;20750;-74
2022/02/02 02:21:54;;;;;;;;;;;;;;;;;;2125812;27;20042;-74
2022/02/02 02:22:56;;;;;;;;;;;;;;;;;;2125914;27;19928;-75
2022/02/02 02:24:00;;;;;;;;;;;;;;;;;;2126510;27;19962;-75
2022/02/02 02:25:01;;;;;;;;;;;;;;;;;;2125885;27;19924;-75
2022/02/02 02:26:06;;;;;;;;;;;;;;;;;;2125508;27;19934;-75
2022/02/02 02:27:11;;;;;;;;;;;;;;;;;;2125580;27;19927;-75
2022/02/02 02:28:31;;;;;;;;;;;;;;;;;;2125864;27;19943;-75
2022/02/02 02:30:50;;;;;;;;;;;;;;;;;;2126370;27;20001;-75
2022/02/02 02:33:16;;;;;;;;;;;;;;;;;;2126366;27;19927;-75
2022/02/02 02:56:16;;;;;;;;;;;;;;;;;;2122939;27;19931;-75
2022/02/02 02:57:22;;;;;;;;;;;;;;;;;;2125843;27;19930;-76
2022/02/02 02:59:43;;;;;;;;;;;;;;;;;;2126150;27;19927;-74
2022/02/02 03:35:18;;;;;;;;;;;;;;;;;;2125563;27;19923;-76
2022/02/02 03:49:28;;;;;;;;;;;;;;;;;;2127102;27;20054;-77
2022/02/02 03:57:30;;;;;;;;;;;;;;;;;;2126127;27;20014;-76
2022/02/02 04:05:37;;;;;;;;;;;;;;;;;;2117922;27;19924;-77
2022/02/02 04:07:04;;;;;;;;;;;;;;;;;;2126546;27;19924;-76
2022/02/02 04:08:28;;;;;;;;;;;;;;;;;;2126094;27;19925;-76
2022/02/02 04:09:50;;;;;;;;;;;;;;;;;;2127004;27;19928;-76
2022/02/02 04:11:30;;;;;;;;;;;;;;;;;;2127333;27;20046;-75
2022/02/02 04:13:07;;;;;;;;;;;;;;;;;;2126661;27;19938;-76
2022/02/02 04:15:38;;;;;;;;;;;;;;;;;;2126305;27;20695;-75
2022/02/02 04:37:45;;;;;;;;;;;;;;;;;;2127536;27;20587;-76
2022/02/02 04:51:19;;;;;;;;;;;;;;;;;;2127300;27;19924;-76
2022/02/02 04:57:51;;;;;;;;;;;;;;;;;;2126581;27;20651;-76
2022/02/02 05:07:46;;;;;;;;;;;;;;;;;;2102573;27;19936;-77
2022/02/02 05:11:08;;;;;;;;;;;;;;;;;;2127120;27;19928;-78
2022/02/02 05:13:20;;;;;;;;;;;;;;;;;;2126781;27;19927;-79
2022/02/02 05:16:11;;;;;;;;;;;;;;;;;;2126718;27;20634;-78
2022/02/02 05:21:10;;;;;;;;;;;;;;;;;;2126933;27;19928;-76
2022/02/02 05:51:24;;;;;;;;;;;;;;;;;;2126443;27;20680;-77
2022/02/02 05:52:36;;;;;;;;;;;;;;;;;;2126317;27;19951;-75
2022/02/02 05:53:57;;;;;;;;;;;;;;;;;;2117932;27;20701;-77
2022/02/02 05:55:19;;;;;;;;;;;;;;;;;;2118089;28;19935;-76
2022/02/02 05:56:41;;;;;;;;;;;;;;;;;;2117238;28;19928;-76
2022/02/02 05:58:03;;;;;;;;;;;;;;;;;;2117087;28;19928;-76
2022/02/02 05:59:25;;;;;;;;;;;;;;;;;;2117886;28;19932;-77
2022/02/02 06:00:47;;;;;;;;;;;;;;;;;;2118113;27;19931;-76
2022/02/02 06:02:08;;;;;;;;;;;;;;;;;;2117348;28;19924;-76
2022/02/02 06:03:29;;;;;;;;;;;;;;;;;;2121569;27;19931;-76
2022/02/02 06:04:42;;;;;;;;;;;;;;;;;;2125994;27;19931;-75
2022/02/02 06:05:59;;;;;;;;;;;;;;;;;;2120036;27;19924;-75
2022/02/02 06:07:10;;;;;;;;;;;;;;;;;;2117131;28;20659;-75
2022/02/02 06:08:22;;;;;;;;;;;;;;;;;;2117700;28;20001;-75
2022/02/02 06:09:36;;;;;;;;;;;;;;;;;;2117413;28;19997;-77
2022/02/02 06:10:48;;;;;;;;;;;;;;;;;;2124075;27;20645;-75
2022/02/02 06:12:00;;;;;;;;;;;;;;;;;;2126022;27;20691;-75
2022/02/02 06:13:05;;;;;;;;;;;;;;;;;;2125994;27;19930;-76
2022/02/02 06:14:18;;;;;;;;;;;;;;;;;;2125745;27;20780;-75
2022/02/02 06:15:34;;;;;;;;;;;;;;;;;;2125733;27;19982;-76
2022/02/02 06:16:50;;;;;;;;;;;;;;;;;;2125789;27;20742;-74
2022/02/02 06:18:03;;;;;;;;;;;;;;;;;;2126045;27;20794;-74
2022/02/02 06:19:17;;;;;;;;;;;;;;;;;;2125750;27;19924;-77
2022/02/02 06:20:33;;;;;;;;;;;;;;;;;;2121305;27;20798;-76
2022/02/02 06:21:44;;;;;;;;;;;;;;;;;;2111943;28;19924;-75
2022/02/02 06:22:52;;;;;;;;;;;;;;;;;;2117324;28;19935;-75
2022/02/02 06:23:56;;;;;;;;;;;;;;;;;;2117371;28;19924;-75
2022/02/02 06:25:06;;;;;;;;;;;;;;;;;;2117224;28;20124;-74
2022/02/02 06:26:18;;;;;;;;;;;;;;;;;;2117061;28;19928;-76
2022/02/02 06:27:28;;;;;;;;;;;;;;;;;;2116757;28;19997;-74
2022/02/02 06:28:42;;;;;;;;;;;;;;;;;;2115624;28;20678;-76
2022/02/02 06:29:49;;;;;;;;;;;;;;;;;;2117811;28;19955;-75
2022/02/02 06:31:07;;;;;;;;;;;;;;;;;;2116966;28;19967;-75
2022/02/02 06:32:29;;;;;;;;;;;;;;;;;;2120356;27;19927;-76
2022/02/02 06:33:51;;;;;;;;;;;;;;;;;;2119202;27;19927;-77
2022/02/02 06:35:12;;;;;;;;;;;;;;;;;;2124325;27;20046;-77
2022/02/02 06:36:35;;;;;;;;;;;;;;;;;;2123556;27;19985;-77
2022/02/02 06:37:57;;;;;;;;;;;;;;;;;;2123761;27;19935;-77
2022/02/02 06:39:19;;;;;;;;;;;;;;;;;;2120912;27;19928;-74
2022/02/02 06:40:41;;;;;;;;;;;;;;;;;;2122059;27;20762;-74
2022/02/02 06:42:02;;;;;;;;;;;;;;;;;;2124747;27;20678;-78
2022/02/02 06:43:23;;;;;;;;;;;;;;;;;;2128854;27;19928;-78
2022/02/02 06:44:45;;;;;;;;;;;;;;;;;;2124440;27;19987;-76
2022/02/02 06:46:07;;;;;;;;;;;;;;;;;;2119961;27;20741;-66
2022/02/02 06:47:28;;;;;;;;;;;;;;;;;;2124124;27;19927;-65
2022/02/02 06:48:49;;;;;;;;;;;;;;;;;;2123704;27;20029;-64
2022/02/02 06:51:43;;;;;;;;;;;;;;;;;;2122627;27;19924;-65
2022/02/02 06:53:13;;;;;;;;;;;;;;;;;;2124004;27;19958;-65
2022/02/02 06:54:45;;;;;;;;;;;;;;;;;;2124014;27;19928;-66
2022/02/02 06:56:19;;;;;;;;;;;;;;;;;;2123599;27;20005;-64
2022/02/02 06:57:46;;;;;;;;;;;;;;;;;;2125962;27;19972;-62
2022/02/02 07:01:06;;;;;;;;;;;;;;;;;;2125367;27;19935;-72
2022/02/02 07:02:46;;;;;;;;;;;;;;;;;;2125389;27;19928;-65
2022/02/02 07:04:20;;;;;;;;;;;;;;;;;;2123165;27;19939;-68
2022/02/02 07:06:03;;;;;;;;;;;;;;;;;;2126074;27;19927;-70
2022/02/02 07:12:31;;;;;;;;;;;;;;;;;;2108101;28;19924;-70
2022/02/02 07:14:12;;;;;;;;;;;;;;;;;;2107158;28;19935;-65
2022/02/02 07:15:52;;;;;;;;;;;;;;;;;;2108429;28;19924;-65
2022/02/02 07:23:58;;;;;;;;;;;;;;;;;;2125704;27;19935;-64
2022/02/02 07:28:32;;;;;;;;;;;;;;;;;;2123237;27;20041;-68
2022/02/02 07:30:11;;;;;;;;;;;;;;;;;;2124257;27;19927;-69
2022/02/02 07:33:16;;;;;;;;;;;;;;;;;;2124388;27;19936;-72
2022/02/02 07:34:42;;;;;;;;;;;;;;;;;;2123639;27;19923;-66
2022/02/02 07:36:18;;;;;;;;;;;;;;;;;;2125372;27;19924;-64
2022/02/02 07:37:39;;;;;;;;;;;;;;;;;;2124364;27;20584;-69
2022/02/02 07:39:00;;;;;;;;;;;;;;;;;;2125668;27;20008;-67
2022/02/02 07:40:22;;;;;;;;;;;;;;;;;;2126721;27;19935;-67
2022/02/02 07:41:43;;;;;;;;;;;;;;;;;;2125755;27;19928;-65
2022/02/02 07:43:05;;;;;;;;;;;;;;;;;;2125127;27;19928;-70
2022/02/02 07:44:26;;;;;;;;;;;;;;;;;;2126096;27;19924;-72
2022/02/02 07:45:47;;;;;;;;;;;;;;;;;;2125790;27;19942;-70
2022/02/02 07:47:11;;;;;;;;;;;;;;;;;;2125732;27;20671;-70
2022/02/02 07:48:33;;;;;;;;;;;;;;;;;;2126206;27;19932;-68
2022/02/02 07:49:54;;;;;;;;;;;;;;;;;;2124324;27;20774;-70
2022/02/02 07:51:16;;;;;;;;;;;;;;;;;;2124142;27;19932;-69
2022/02/02 07:52:37;;;;;;;;;;;;;;;;;;2124591;27;20608;-66
2022/02/02 07:54:01;;;;;;;;;;;;;;;;;;2123168;27;19935;-66
2022/02/02 07:55:26;;;;;;;;;;;;;;;;;;2124109;27;19928;-73
2022/02/02 07:56:47;;;;;;;;;;;;;;;;;;2119958;27;19955;-71
2022/02/02 07:58:11;;;;;;;;;;;;;;;;;;2125185;27;19935;-67
2022/02/02 08:00:57;;;;;;;;;;;;;;;;;;2125239;27;19927;-71
2022/02/02 08:02:23;;;;;;;;;;;;;;;;;;2124666;27;20780;-71
2022/02/02 08:03:53;;;;;;;;;;;;;;;;;;2122861;27;19923;-72
2022/02/02 08:05:17;;;;;;;;;;;;;;;;;;2121096;27;19924;-66
2022/02/02 08:06:40;;;;;;;;;;;;;;;;;;2123022;27;19928;-66
2022/02/02 08:08:13;;;;;;;;;;;;;;;;;;2124610;27;19924;-72
2022/02/02 08:09:44;;;;;;;;;;;;;;;;;;2125387;27;20684;-72
2022/02/02 08:11:09;;;;;;;;;;;;;;;;;;2124855;27;19932;-68
2022/02/02 08:12:33;;;;;;;;;;;;;;;;;;2125401;27;19934;-68
2022/02/02 08:13:58;;;;;;;;;;;;;;;;;;2126277;27;19924;-68
2022/02/02 08:15:21;;;;;;;;;;;;;;;;;;2126001;27;20673;-69
2022/02/02 08:16:43;;;;;;;;;;;;;;;;;;2124643;27;20004;-67
2022/02/02 08:18:04;;;;;;;;;;;;;;;;;;2125607;27;19927;-69
2022/02/02 08:19:26;;;;;;;;;;;;;;;;;;2123634;27;19935;-65
2022/02/02 08:20:47;;;;;;;;;;;;;;;;;;2125324;27;19924;-71
2022/02/02 08:22:09;;;;;;;;;;;;;;;;;;2125991;27;19934;-71
2022/02/02 08:23:30;;;;;;;;;;;;;;;;;;2124813;27;19923;-70
2022/02/02 08:24:41;;;;;;;;;;;;;;;;;;2125460;27;19927;-70
2022/02/02 08:26:09;;;;;;;;;;;;;;;;;;2124237;27;19923;-67
2022/02/02 08:27:37;;;;;;;;;;;;;;;;;;2125714;27;19923;-70
2022/02/02 08:28:58;;;;;;;;;;;;;;;;;;2124225;27;19923;-64
2022/02/02 08:30:07;;;;;;;;;;;;;;;;;;2125742;27;20790;-63
2022/02/02 08:31:29;;;;;;;;;;;;;;;;;;2124033;27;20008;-70
2022/02/02 08:32:56;;;;;;;;;;;;;;;;;;2125177;27;20655;-67
2022/02/02 08:34:18;;;;;;;;;;;;;;;;;;2125208;27;19924;-64
2022/02/02 08:35:43;;;;;;;;;;;;;;;;;;2125608;27;19924;-64
2022/02/02 08:37:05;;;;;;;;;;;;;;;;;;2125150;27;19996;-66
2022/02/02 08:41:17;;;;;;;;;;;;;;;;;;2122121;27;19931;-66
2022/02/02 08:42:39;;;;;;;;;;;;;;;;;;2124139;27;20002;-70
2022/02/02 08:44:16;;;;;;;;;;;;;;;;;;2126071;27;19935;-67
2022/02/02 08:45:40;;;;;;;;;;;;;;;;;;2123726;27;20704;-73
2022/02/02 08:47:06;;;;;;;;;;;;;;;;;;2125494;27;19923;-68
2022/02/02 08:48:28;;;;;;;;;;;;;;;;;;2124739;27;19928;-65
2022/02/02 08:49:55;;;;;;;;;;;;;;;;;;2124800;27;19928;-71
2022/02/02 08:51:16;;;;;;;;;;;;;;;;;;2124860;27;20036;-67
2022/02/02 08:52:49;;;;;;;;;;;;;;;;;;2124519;27;19946;-66
2022/02/02 08:58:36;;;;;;;;;;;;;;;;;;2123138;27;19924;-68
2022/02/02 09:00:04;;;;;;;;;;;;;;;;;;2124630;27;20113;-68
2022/02/02 09:01:29;;;;;;;;;;;;;;;;;;2126138;27;19924;-68
2022/02/02 09:05:18;;;;;;;;;;;;;;;;;;2124918;27;19928;-73
2022/02/02 09:06:15;;;;;;;;;;;;;;;;;;2124900;27;19924;-73
2022/02/02 09:07:36;;;;;;;;;;;;;;;;;;2123603;27;19979;-73
2022/02/02 09:08:50;;;;;;;;;;;;;;;;;;2125411;27;19927;-69
2022/02/02 09:10:17;;;;;;;;;;;;;;;;;;2124899;27;20002;-64
2022/02/02 09:22:26;;;;;;;;;;;;;;;;;;2123124;27;19930;-71
2022/02/02 09:23:29;;;;;;;;;;;;;;;;;;2123936;27;19979;-68
2022/02/02 09:31:23;;;;;;;;;;;;;;;;;;2123804;27;19934;-69
2022/02/02 09:34:26;;;;;;;;;;;;;;;;;;2124783;27;19935;-70
2022/02/02 09:35:48;;;;;;;;;;;;;;;;;;2125537;27;20052;-69
2022/02/02 09:37:09;;;;;;;;;;;;;;;;;;2124870;27;19924;-70
2022/02/02 09:38:30;;;;;;;;;;;;;;;;;;2124141;27;19928;-69
2022/02/02 09:40:21;;;;;;;;;;;;;;;;;;2124970;27;19927;-69
2022/02/02 09:41:46;;;;;;;;;;;;;;;;;;2122047;27;19927;-67
2022/02/02 09:43:09;;;;;;;;;;;;;;;;;;2123463;27;19935;-69
2022/02/02 09:44:37;;;;;;;;;;;;;;;;;;2124992;27;19928;-68
2022/02/02 09:46:04;;;;;;;;;;;;;;;;;;2124816;27;20619;-70
2022/02/02 09:47:32;;;;;;;;;;;;;;;;;;2125521;27;19928;-68
2022/02/02 09:48:52;;;;;;;;;;;;;;;;;;2124842;27;20050;-68
2022/02/02 09:50:14;;;;;;;;;;;;;;;;;;2125506;27;20600;-63
2022/02/02 09:51:49;;;;;;;;;;;;;;;;;;2124966;27;19959;-65
2022/02/02 09:53:18;;;;;;;;;;;;;;;;;;2125368;27;19935;-67
2022/02/02 09:54:30;;;;;;;;;;;;;;;;;;2123887;27;20001;-66
2022/02/02 09:56:07;;;;;;;;;;;;;;;;;;2123495;27;19934;-64
2022/02/02 10:00:44;;;;;;;;;;;;;;;;;;2125445;27;19973;-65
2022/02/02 10:02:17;;;;;;;;;;;;;;;;;;2123174;27;19928;-66
2022/02/02 10:04:47;;;;;;;;;;;;;;;;;;2125004;27;19998;-64
2022/02/02 10:07:00;;;;;;;;;;;;;;;;;;2123454;27;20042;-66
2022/02/02 10:09:16;;;;;;;;;;;;;;;;;;2125159;27;19928;-66
2022/02/02 10:14:15;;;;;;;;;;;;;;;;;;2124356;27;19928;-62
2022/02/02 10:15:27;;;;;;;;;;;;;;;;;;2121855;27;20001;-66
2022/02/02 10:16:42;;;;;;;;;;;;;;;;;;2121862;27;20770;-70
2022/02/02 10:17:44;;;;;;;;;;;;;;;;;;2125219;27;19931;-62
2022/02/02 10:18:49;;;;;;;;;;;;;;;;;;2120887;27;20062;-67
2022/02/02 10:19:59;;;;;;;;;;;;;;;;;;2125690;27;19928;-65
2022/02/02 10:21:02;;;;;;;;;;;;;;;;;;2123904;27;19932;-67
2022/02/02 10:22:14;;;;;;;;;;;;;;;;;;2118845;27;20057;-67
2022/02/02 10:23:18;;;;;;;;;;;;;;;;;;2124753;27;20662;-66
2022/02/02 10:24:30;;;;;;;;;;;;;;;;;;2123880;27;20722;-67
2022/02/02 10:25:40;;;;;;;;;;;;;;;;;;2124823;27;19928;-64
2022/02/02 10:26:58;;;;;;;;;;;;;;;;;;2124754;27;20643;-64
2022/02/02 10:28:17;;;;;;;;;;;;;;;;;;2123980;27;20029;-66
2022/02/02 10:29:32;;;;;;;;;;;;;;;;;;2122394;27;20054;-64
2022/02/02 10:30:40;;;;;;;;;;;;;;;;;;2123946;27;20750;-63
2022/02/02 10:31:42;;;;;;;;;;;;;;;;;;2123365;27;19924;-67
2022/02/02 10:32:48;;;;;;;;;;;;;;;;;;2124099;27;20808;-70
2022/02/02 10:34:01;;;;;;;;;;;;;;;;;;2123630;27;19931;-70
2022/02/02 10:35:03;;;;;;;;;;;;;;;;;;2123532;27;19935;-71
2022/02/02 10:37:29;;;;;;;;;;;;;;;;;;2124860;27;19924;-71
2022/02/02 10:38:46;;;;;;;;;;;;;;;;;;2124632;27;19931;-71
2022/02/02 10:39:53;;;;;;;;;;;;;;;;;;2124286;27;20058;-64
2022/02/02 10:41:16;;;;;;;;;;;;;;;;;;2123695;27;19924;-66
2022/02/02 10:42:27;;;;;;;;;;;;;;;;;;2124788;27;19930;-67
2022/02/02 10:43:45;;;;;;;;;;;;;;;;;;2124298;27;20950;-69
2022/02/02 10:45:01;;;;;;;;;;;;;;;;;;2121840;27;19927;-63
2022/02/02 10:46:15;;;;;;;;;;;;;;;;;;2124729;27;20105;-66
2022/02/02 10:47:36;;;;;;;;;;;;;;;;;;2124398;27;19927;-66
2022/02/02 10:48:53;;;;;;;;;;;;;;;;;;2124487;27;20785;-68
2022/02/02 10:51:09;;;;;;;;;;;;;;;;;;2124419;27;19928;-67
2022/02/02 10:54:02;;;;;;;;;;;;;;;;;;2124973;27;20098;-64
2022/02/02 10:55:58;;;;;;;;;;;;;;;;;;2123431;27;19931;-67
2022/02/02 10:57:51;;;;;;;;;;;;;;;;;;2124787;27;20761;-66
2022/02/02 11:00:13;;;;;;;;;;;;;;;;;;2123942;27;19946;-68
2022/02/02 11:01:35;;;;;;;;;;;;;;;;;;2123629;27;19928;-67
2022/02/02 11:07:08;;;;;;;;;;;;;;;;;;2104584;28;20097;-70
2022/02/02 11:08:14;;;;;;;;;;;;;;;;;;2106996;28;20786;-69
2022/02/02 11:09:19;;;;;;;;;;;;;;;;;;2106968;28;20046;-67
2022/02/02 11:10:25;;;;;;;;;;;;;;;;;;2106573;28;19951;-70
2022/02/02 11:11:33;;;;;;;;;;;;;;;;;;2107205;28;19995;-69
2022/02/02 11:12:39;;;;;;;;;;;;;;;;;;2111831;27;19924;-66
2022/02/02 11:13:43;;;;;;;;;;;;;;;;;;2124619;27;20050;-71
2022/02/02 11:14:48;;;;;;;;;;;;;;;;;;2124367;27;19927;-69
2022/02/02 11:15:52;;;;;;;;;;;;;;;;;;2124469;27;19923;-70
2022/02/02 11:16:58;;;;;;;;;;;;;;;;;;2121367;27;19923;-71
2022/02/02 11:18:05;;;;;;;;;;;;;;;;;;2124946;27;20837;-70
2022/02/02 11:19:10;;;;;;;;;;;;;;;;;;2124283;27;20803;-71
2022/02/02 11:20:13;;;;;;;;;;;;;;;;;;2124418;27;20062;-70
2022/02/02 11:21:18;;;;;;;;;;;;;;;;;;2123732;27;19935;-73
2022/02/02 11:22:32;;;;;;;;;;;;;;;;;;2121284;27;19997;-70
2022/02/02 11:23:33;;;;;;;;;;;;;;;;;;2125096;27;19928;-71
2022/02/02 11:24:36;;;;;;;;;;;;;;;;;;2123542;27;19924;-72
2022/02/02 11:25:38;;;;;;;;;;;;;;;;;;2124359;27;19928;-68
2022/02/02 11:26:41;;;;;;;;;;;;;;;;;;2124145;27;19928;-72
2022/02/02 11:27:43;;;;;;;;;;;;;;;;;;2121360;27;20730;-68
2022/02/02 11:28:44;;;;;;;;;;;;;;;;;;2124331;27;19927;-71
2022/02/02 11:29:50;;;;;;;;;;;;;;;;;;2124613;27;20957;-71
2022/02/02 11:30:52;;;;;;;;;;;;;;;;;;2124649;27;19928;-65
2022/02/02 11:31:58;;;;;;;;;;;;;;;;;;2124440;27;19927;-71
2022/02/02 11:33:01;;;;;;;;;;;;;;;;;;2124866;27;19928;-71
2022/02/02 11:34:07;;;;;;;;;;;;;;;;;;2124088;27;19932;-70
2022/02/02 11:35:13;;;;;;;;;;;;;;;;;;2124092;27;19930;-72
2022/02/02 11:36:15;;;;;;;;;;;;;;;;;;2123718;27;19935;-72
2022/02/02 11:37:17;;;;;;;;;;;;;;;;;;2122548;27;20033;-71
2022/02/02 11:38:23;;;;;;;;;;;;;;;;;;2124187;27;19931;-70
2022/02/02 11:39:25;;;;;;;;;;;;;;;;;;2123385;27;19927;-70
2022/02/02 11:40:28;;;;;;;;;;;;;;;;;;2122028;27;20009;-71
2022/02/02 11:42:42;;;;;;;;;;;;;;;;;;2125728;27;19931;-71
2022/02/02 11:43:45;;;;;;;;;;;;;;;;;;2125711;27;19928;-69
2022/02/02 11:45:04;;;;;;;;;;;;;;;;;;2124427;27;20983;-71
2022/02/02 11:46:06;;;;;;;;;;;;;;;;;;2122182;27;20034;-72
2022/02/02 11:48:17;;;;;;;;;;;;;;;;;;2125538;27;19936;-70
2022/02/02 11:49:21;;;;;;;;;;;;;;;;;;2125677;27;20599;-67
2022/02/02 11:50:27;;;;;;;;;;;;;;;;;;2126115;27;19924;-70
2022/02/02 11:51:28;;;;;;;;;;;;;;;;;;2125696;27;19978;-71
2022/02/02 11:52:30;;;;;;;;;;;;;;;;;;2126247;27;20018;-70
2022/02/02 11:53:33;;;;;;;;;;;;;;;;;;2125619;27;19931;-71
2022/02/02 11:54:34;;;;;;;;;;;;;;;;;;2125948;27;19935;-69
2022/02/02 11:55:42;;;;;;;;;;;;;;;;;;2126056;27;20078;-69
2022/02/02 11:56:44;;;;;;;;;;;;;;;;;;2124107;27;19958;-70
2022/02/02 11:57:45;;;;;;;;;;;;;;;;;;2126542;27;20796;-69
2022/02/02 11:58:47;;;;;;;;;;;;;;;;;;2125446;27;20003;-69
2022/02/02 12:01:01;;;;;;;;;;;;;;;;;;2125745;27;19928;-69
2022/02/02 12:02:04;;;;;;;;;;;;;;;;;;2125707;27;20808;-70
2022/02/02 12:04:19;;;;;;;;;;;;;;;;;;2125365;27;20684;-70
2022/02/02 12:05:33;;;;;;;;;;;;;;;;;;2124697;27;20110;-73
2022/02/02 12:06:58;;;;;;;;;;;;;;;;;;2119965;27;19974;-70
2022/02/02 12:10:08;;;;;;;;;;;;;;;;;;2126232;27;20754;-64
2022/02/02 12:27:46;;;;;;;;;;;;;;;;;;2126079;27;19931;-72
2022/02/02 12:36:01;;;;;;;;;;;;;;;;;;2125178;27;20050;-65
2022/02/02 12:47:57;;;;;;;;;;;;;;;;;;2111546;27;19928;-63
2022/02/02 12:50:26;;;;;;;;;;;;;;;;;;2125414;27;19958;-68
2022/02/02 12:54:42;;;;;;;;;;;;;;;;;;2123305;27;19927;-68
2022/02/02 12:56:48;;;;;;;;;;;;;;;;;;2123677;27;20685;-64
2022/02/02 12:58:01;;;;;;;;;;;;;;;;;;2124814;27;20038;-66
2022/02/02 12:59:03;;;;;;;;;;;;;;;;;;2125235;27;19928;-66
2022/02/02 13:00:09;;;;;;;;;;;;;;;;;;2125965;27;20001;-64
2022/02/02 13:01:13;;;;;;;;;;;;;;;;;;2124876;27;19935;-69
2022/02/02 13:02:15;;;;;;;;;;;;;;;;;;2122839;27;19986;-63
2022/02/02 13:03:17;;;;;;;;;;;;;;;;;;2123288;27;20038;-64
2022/02/02 13:04:19;;;;;;;;;;;;;;;;;;2124277;27;20790;-64
2022/02/02 13:05:21;;;;;;;;;;;;;;;;;;2124387;27;20673;-73
2022/02/02 13:06:24;;;;;;;;;;;;;;;;;;2124021;27;19928;-62
2022/02/02 13:07:26;;;;;;;;;;;;;;;;;;2123733;27;19935;-64
2022/02/02 13:08:28;;;;;;;;;;;;;;;;;;2122454;27;19924;-63
2022/02/02 13:09:31;;;;;;;;;;;;;;;;;;2123237;27;20001;-64
2022/02/02 13:10:33;;;;;;;;;;;;;;;;;;2122563;27;19966;-64
2022/02/02 13:11:37;;;;;;;;;;;;;;;;;;2123601;27;19931;-63
2022/02/02 13:12:46;;;;;;;;;;;;;;;;;;2125616;27;19928;-63
2022/02/02 13:13:48;;;;;;;;;;;;;;;;;;2125422;27;20060;-66
2022/02/02 13:16:19;;;;;;;;;;;;;;;;;;2125388;27;19970;-72
2022/02/02 13:17:21;;;;;;;;;;;;;;;;;;2124725;27;20881;-65
2022/02/02 13:18:32;;;;;;;;;;;;;;;;;;2124510;27;19924;-68
2022/02/02 13:19:35;;;;;;;;;;;;;;;;;;2124279;27;19927;-62
2022/02/02 13:20:45;;;;;;;;;;;;;;;;;;2124415;27;19967;-66
2022/02/02 13:21:53;;;;;;;;;;;;;;;;;;2125339;27;19934;-68
2022/02/02 13:22:56;;;;;;;;;;;;;;;;;;2125144;27;20820;-64
2022/02/02 13:24:19;;;;;;;;;;;;;;;;;;2123079;27;19935;-66
2022/02/02 13:25:22;;;;;;;;;;;;;;;;;;2119079;27;20800;-69
2022/02/02 13:26:55;;;;;;;;;;;;;;;;;;2124471;27;20759;-66
2022/02/02 13:27:47;;;;;;;;;;;;;;;;;;2124614;27;19927;-70
2022/02/02 13:28:59;;;;;;;;;;;;;;;;;;2124620;27;19978;-67
2022/02/02 13:30:05;;;;;;;;;;;;;;;;;;2117666;27;20046;-68
2022/02/02 13:31:07;;;;;;;;;;;;;;;;;;2124070;27;20084;-65
2022/02/02 13:32:30;;;;;;;;;;;;;;;;;;2123468;27;20900;-66
2022/02/02 13:33:38;;;;;;;;;;;;;;;;;;2124183;27;19924;-62
2022/02/02 13:34:56;;;;;;;;;;;;;;;;;;2123694;27;20046;-65
2022/02/02 13:36:01;;;;;;;;;;;;;;;;;;2117090;27;20719;-67
2022/02/02 13:37:16;;;;;;;;;;;;;;;;;;2123998;27;19976;-67
2022/02/02 13:38:35;;;;;;;;;;;;;;;;;;2124783;27;19986;-64
2022/02/02 13:42:40;;;;;;;;;;;;;;;;;;2124766;27;20543;-66
2022/02/02 13:44:08;;;;;;;;;;;;;;;;;;2124458;27;19938;-67